createdAt,value
2022-11-01T00:01:21.100Z,815.55
2022-11-01T00:06:23.844Z,813.78
2022-11-01T00:11:26.761Z,822.85
2022-11-01T00:16:29.229Z,848.88
2022-11-01T00:21:31.143Z,833.85
2022-11-01T00:26:33.648Z,826.60
2022-11-01T00:31:35.557Z,833.72
2022-11-01T00:36:51.131Z,843.28
2022-11-01T00:41:53.295Z,827.90
2022-11-01T00:46:55.157Z,823.90
2022-11-01T00:51:58.048Z,832.22
2022-11-01T00:56:59.901Z,827.65
2022-11-01T01:02:02.280Z,823.15
2022-11-01T01:07:05.340Z,825.58
2022-11-01T01:12:09.323Z,824.47
2022-11-01T01:17:12.178Z,836.47
2022-11-01T01:22:15.459Z,835.28
2022-11-01T01:27:21.740Z,816.67
2022-11-01T01:32:25.016Z,816.63
2022-11-01T01:37:27.805Z,821.63
2022-11-01T01:42:38.603Z,822.42
2022-11-01T01:47:51.646Z,821.58
2022-11-01T01:53:30.313Z,827.75
2022-11-01T01:58:37.053Z,824.38
2022-11-01T02:03:41.787Z,840.67
2022-11-01T02:08:47.117Z,844.25
2022-11-01T02:13:49.306Z,826.40
2022-11-01T02:19:24.901Z,841.65
2022-11-01T02:25:01.611Z,838.08
2022-11-01T02:30:17.215Z,843.15
2022-11-01T02:35:30.390Z,855.35
2022-11-01T02:40:36.051Z,859.20
2022-11-01T02:45:42.896Z,877.42
2022-11-01T02:50:49.603Z,878.78
2022-11-01T02:55:53.979Z,868.35
2022-11-01T03:00:57.124Z,878.30
2022-11-01T03:06:15.779Z,881.95
2022-11-01T03:11:46.862Z,903.07
2022-11-01T03:16:51.736Z,899.43
2022-11-01T03:22:06.216Z,903.80
2022-11-01T03:27:32.767Z,908.93
2022-11-01T03:32:59.876Z,909.33
2022-11-01T03:38:06.675Z,926.13
2022-11-01T03:43:13.063Z,890.40
2022-11-01T03:48:15.245Z,943.33
2022-11-01T03:53:18.272Z,918.57
2022-11-01T03:58:22.969Z,922.60
2022-11-01T04:03:25.713Z,960.10
2022-11-01T04:08:28.596Z,933.07
2022-11-01T04:13:33.535Z,923.10
2022-11-01T04:18:54.033Z,930.03
2022-11-01T04:23:55.928Z,888.85
2022-11-01T04:28:58.017Z,884.23
2022-11-01T04:34:01.651Z,850.47
2022-11-01T04:39:03.624Z,860.88
2022-11-01T04:44:05.505Z,867.10
2022-11-01T04:49:07.805Z,838.22
2022-11-01T04:54:09.777Z,824.72
2022-11-01T04:59:11.679Z,848.85
2022-11-01T05:04:13.725Z,829.50
2022-11-01T05:09:18.301Z,827.43
2022-11-01T05:14:23.470Z,844.80
2022-11-01T05:19:28.509Z,820.77
2022-11-01T05:24:30.580Z,792.78
2022-11-01T05:29:33.593Z,797.78
2022-11-01T05:34:35.650Z,783.88
2022-11-01T05:39:37.591Z,786.08
2022-11-01T05:44:39.481Z,788.25
2022-11-01T05:49:41.406Z,807.90
2022-11-01T05:54:43.361Z,823.40
2022-11-01T05:59:45.328Z,815.67
2022-11-01T06:04:47.764Z,793.33
2022-11-01T06:09:50.612Z,806.50
2022-11-01T06:14:54.455Z,797.67
2022-11-01T06:19:56.695Z,775.73
2022-11-01T06:24:58.830Z,778.13
2022-11-01T06:30:00.730Z,776.45
2022-11-01T06:35:02.964Z,773.55
2022-11-01T06:40:07.402Z,778.77
2022-11-01T06:45:12.227Z,771.50
2022-11-01T06:50:37.877Z,768.50
2022-11-01T06:55:40.182Z,768.77
2022-11-01T07:00:46.595Z,770.67
2022-11-01T07:05:50.197Z,765.30
2022-11-01T07:10:52.824Z,767.93
2022-11-01T07:15:54.844Z,768.23
2022-11-01T07:21:01.265Z,767.73
2022-11-01T07:26:04.028Z,768.80
2022-11-01T07:31:07.411Z,772.20
2022-11-01T07:36:09.457Z,775.27
2022-11-01T07:41:11.359Z,766.67
2022-11-01T07:46:22.251Z,769.60
2022-11-01T07:51:27.266Z,764.30
2022-11-01T07:56:33.651Z,776.70
2022-11-01T08:01:36.109Z,779.20
2022-11-01T08:06:38.113Z,786.50
2022-11-01T08:11:40.102Z,786.70
2022-11-01T08:16:42.132Z,768.50
2022-11-01T08:21:44.119Z,783.97
2022-11-01T08:26:46.001Z,776.03
2022-11-01T08:31:49.207Z,770.45
2022-11-01T08:36:51.072Z,770.00
2022-11-01T08:41:53.056Z,778.80
2022-11-01T08:46:55.736Z,782.92
2022-11-01T08:51:58.023Z,785.05
2022-11-01T08:57:02.648Z,784.17
2022-11-01T09:02:10.469Z,778.03
2022-11-01T09:07:12.828Z,775.15
2022-11-01T09:12:21.900Z,779.45
2022-11-01T09:17:26.756Z,779.13
2022-11-01T09:22:31.211Z,786.08
2022-11-01T09:27:34.730Z,780.83
2022-11-01T09:32:37.692Z,787.78
2022-11-01T09:37:39.736Z,785.63
2022-11-01T09:42:44.546Z,804.58
2022-11-01T09:47:54.874Z,810.58
2022-11-01T09:52:57.647Z,823.63
2022-11-01T09:58:28.506Z,808.08
2022-11-01T10:03:48.392Z,815.22
2022-11-01T10:08:56.464Z,821.75
2022-11-01T10:14:07.907Z,831.83
2022-11-01T10:19:23.828Z,837.83
2022-11-01T10:24:56.694Z,845.08
2022-11-01T10:30:13.310Z,833.28
2022-11-01T10:35:23.215Z,842.10
2022-11-01T10:40:35.624Z,848.80
2022-11-01T10:45:42.348Z,853.55
2022-11-01T10:50:52.554Z,867.07
2022-11-01T10:56:03.248Z,812.22
2022-11-01T11:01:07.905Z,828.95
2022-11-01T11:06:13.335Z,842.33
2022-11-01T11:11:17.130Z,855.65
2022-11-01T11:16:30.210Z,867.03
2022-11-01T11:21:34.664Z,864.93
2022-11-01T11:26:39.371Z,871.28
2022-11-01T11:31:41.952Z,859.08
2022-11-01T11:36:47.957Z,860.20
2022-11-01T11:41:49.842Z,879.20
2022-11-01T11:47:10.673Z,874.95
2022-11-01T11:52:38.932Z,876.13
2022-11-01T11:57:56.981Z,877.58
2022-11-01T12:03:04.084Z,895.03
2022-11-01T12:08:47.328Z,897.07
2022-11-01T12:14:08.294Z,906.17
2022-11-01T12:19:32.022Z,965.60
2022-11-01T12:24:57.505Z,951.13
2022-11-01T12:30:05.311Z,919.70
2022-11-01T12:35:34.741Z,974.57
2022-11-01T12:40:39.001Z,938.53
2022-11-01T12:46:01.701Z,913.08
2022-11-01T12:51:10.059Z,911.40
2022-11-01T12:56:12.568Z,905.58
2022-11-01T13:01:42.837Z,907.63
2022-11-01T13:07:37.881Z,908.03
2022-11-01T13:12:59.528Z,903.80
2022-11-01T13:18:21.830Z,922.30
2022-11-01T13:23:45.548Z,914.33
2022-11-01T13:28:58.278Z,895.72
2022-11-01T13:34:22.062Z,888.50
2022-11-01T13:39:55.759Z,916.42
2022-11-01T13:45:06.937Z,901.88
2022-11-01T13:50:19.387Z,899.33
2022-11-01T13:55:40.337Z,910.67
2022-11-01T14:00:50.120Z,881.40
2022-11-01T14:06:11.359Z,932.87
2022-11-01T14:11:42.179Z,923.93
2022-11-01T14:16:44.424Z,920.47
2022-11-01T14:21:50.317Z,883.70
2022-11-01T14:27:06.163Z,877.97
2022-11-01T14:32:13.111Z,941.17
2022-11-01T14:37:23.443Z,906.28
2022-11-01T14:42:40.444Z,883.85
2022-11-01T14:47:44.595Z,908.65
2022-11-01T14:52:56.091Z,887.22
2022-11-01T14:58:21.474Z,901.33
2022-11-01T15:03:25.404Z,847.22
2022-11-01T15:08:49.519Z,897.50
2022-11-01T15:13:53.380Z,853.75
2022-11-01T15:18:59.427Z,848.85
2022-11-01T15:24:03.198Z,835.78
2022-11-01T15:29:06.126Z,842.88
2022-11-01T15:34:26.981Z,837.15
2022-11-01T15:39:29.556Z,851.60
2022-11-01T15:44:38.048Z,882.03
2022-11-01T15:49:52.159Z,848.20
2022-11-01T15:55:07.015Z,839.53
2022-11-01T16:00:32.185Z,844.67
2022-11-01T16:05:46.829Z,823.55
2022-11-01T16:10:52.472Z,832.33
2022-11-01T16:16:05.453Z,823.17
2022-11-01T16:21:29.454Z,828.13
2022-11-01T16:26:31.486Z,824.72
2022-11-01T16:31:37.646Z,814.83
2022-11-01T16:36:46.378Z,837.83
2022-11-01T16:41:55.251Z,810.08
2022-11-01T16:46:57.440Z,803.40
2022-11-01T16:52:02.990Z,824.50
2022-11-01T16:57:10.075Z,844.35
2022-11-01T17:02:22.572Z,830.53
2022-11-01T17:07:25.728Z,820.20
2022-11-01T17:12:34.311Z,824.17
2022-11-01T17:17:37.297Z,824.15
2022-11-01T17:22:39.374Z,823.00
2022-11-01T17:27:48.990Z,817.35
2022-11-01T17:32:53.030Z,828.38
2022-11-01T17:37:55.856Z,813.50
2022-11-01T17:42:58.632Z,805.53
2022-11-01T17:48:03.698Z,818.17
2022-11-01T17:53:26.250Z,816.97
2022-11-01T17:58:28.203Z,799.45
2022-11-01T18:03:30.356Z,809.03
2022-11-01T18:08:41.637Z,825.67
2022-11-01T18:14:10.392Z,830.97
2022-11-01T18:19:23.761Z,820.78
2022-11-01T18:24:40.606Z,844.38
2022-11-01T18:29:46.352Z,798.45
2022-11-01T18:34:56.813Z,800.47
2022-11-01T18:40:14.284Z,812.05
2022-11-01T18:45:29.759Z,804.33
2022-11-01T18:50:38.525Z,814.80
2022-11-01T18:55:41.049Z,847.00
2022-11-01T19:00:43.286Z,819.27
2022-11-01T19:05:45.204Z,880.43
2022-11-01T19:10:47.095Z,852.50
2022-11-01T19:15:54.047Z,817.47
2022-11-01T19:20:57.752Z,822.03
2022-11-01T19:25:59.680Z,861.13
2022-11-01T19:31:07.946Z,814.30
2022-11-01T19:41:45.651Z,781.97
2022-11-01T19:46:48.625Z,789.15
2022-11-01T19:52:08.712Z,789.97
2022-11-01T20:02:30.720Z,774.78
2022-11-01T20:07:33.119Z,788.83
2022-11-01T20:12:40.951Z,778.45
2022-11-01T20:23:00.385Z,778.72
2022-11-01T20:28:16.173Z,767.40
2022-11-01T20:33:18.127Z,777.33
2022-11-01T20:43:27.862Z,771.55
2022-11-01T20:48:30.092Z,780.30
2022-11-01T20:53:33.160Z,782.05
2022-11-01T20:58:41.069Z,780.22
2022-11-01T21:03:45.996Z,770.13
2022-11-01T21:08:52.765Z,778.55
2022-11-01T21:13:54.669Z,821.28
2022-11-01T21:19:03.347Z,840.27
2022-11-01T21:24:30.898Z,829.37
2022-11-01T21:29:32.936Z,826.03
2022-11-01T21:34:35.734Z,785.80
2022-11-01T21:39:38.960Z,771.28
2022-11-01T21:44:43.493Z,776.90
2022-11-01T21:49:50.258Z,776.63
2022-11-01T21:54:53.285Z,770.83
2022-11-01T21:59:55.163Z,775.70
2022-11-01T22:04:58.636Z,775.92
2022-11-01T22:10:00.529Z,781.53
2022-11-01T22:15:05.646Z,772.75
2022-11-01T22:20:09.596Z,769.70
2022-11-01T22:25:11.525Z,774.17
2022-11-01T22:30:15.105Z,772.67
2022-11-01T22:35:16.995Z,775.90
2022-11-01T22:40:19.706Z,775.88
2022-11-01T22:45:22.498Z,771.63
2022-11-01T22:50:28.376Z,775.72
2022-11-01T22:55:38.417Z,775.28
2022-11-01T23:00:40.464Z,776.72
2022-11-01T23:05:45.537Z,772.70
2022-11-01T23:10:50.211Z,772.15
2022-11-01T23:15:52.275Z,769.05
2022-11-01T23:21:07.105Z,775.92
2022-11-01T23:26:09.821Z,772.38
2022-11-01T23:31:14.398Z,773.03
2022-11-01T23:36:26.090Z,779.22
2022-11-01T23:41:56.086Z,784.28
2022-11-01T23:47:21.937Z,771.13
2022-11-01T23:52:42.135Z,781.05
2022-11-01T23:57:46.633Z,771.28
